Time;durP1;ratioP1;P1;durP2;ratioP2;P2;SDS_P1;SDS_P2;PMS_P1;PMS_P2;Temp;Humidity;BMP_temperature;BMP_pressure;BME280_temperature;BME280_humidity;BME280_pressure;Samples;Min_cycle;Max_cycle;Signal;HPM_P1;HPM_P2
2022/07/18 00:02:19;;;;;;;4.93;1.70;;;27.30;43.30;;;;;;6183495;23;20001;-63
2022/07/18 00:04:46;;;;;;;4.35;1.67;;;27.30;43.40;;;;;;6184703;23;20001;-61
2022/07/18 00:07:12;;;;;;;4.45;1.50;;;27.30;43.50;;;;;;6185136;23;20055;-62
2022/07/18 00:09:39;;;;;;;2.70;1.40;;;27.30;43.30;;;;;;6185191;23;20017;-62
2022/07/18 00:12:07;;;;;;;1.95;1.30;;;27.30;44.00;;;;;;6185236;23;19997;-66
2022/07/18 00:14:34;;;;;;;2.70;1.45;;;27.30;43.40;;;;;;6185388;23;20555;-62
2022/07/18 00:17:00;;;;;;;3.92;1.48;;;27.30;43.50;;;;;;6185133;23;20435;-62
2022/07/18 00:19:27;;;;;;;4.60;1.50;;;27.30;43.40;;;;;;6184888;23;20028;-62
2022/07/18 00:21:53;;;;;;;5.78;1.70;;;27.20;43.40;;;;;;6185320;23;20009;-62
2022/07/18 00:24:18;;;;;;;3.63;1.55;;;27.20;43.40;;;;;;6185620;23;20027;-61
2022/07/18 00:26:44;;;;;;;5.35;1.50;;;27.20;43.40;;;;;;6185495;23;20005;-61
2022/07/18 00:29:10;;;;;;;6.53;1.90;;;27.10;43.20;;;;;;6185419;23;20321;-66
2022/07/18 00:31:35;;;;;;;5.05;1.63;;;27.10;43.60;;;;;;6184982;23;20004;-62
2022/07/18 00:34:02;;;;;;;5.05;1.60;;;27.10;43.90;;;;;;6185639;23;20009;-65
2022/07/18 00:36:28;;;;;;;4.45;1.48;;;27.10;44.10;;;;;;6185105;23;20001;-62
2022/07/18 00:38:54;;;;;;;4.38;1.60;;;27.10;43.90;;;;;;6185564;23;20439;-62
2022/07/18 00:41:20;;;;;;;3.83;1.58;;;27.10;44.10;;;;;;6185519;23;20309;-62
2022/07/18 00:43:46;;;;;;;5.25;1.60;;;27.10;44.10;;;;;;6185157;23;20012;-63
2022/07/18 00:46:12;;;;;;;10.35;1.92;;;27.00;44.00;;;;;;6185900;23;20005;-62
2022/07/18 00:48:42;;;;;;;5.15;1.70;;;27.00;44.10;;;;;;6187008;23;20424;-61
2022/07/18 00:51:08;;;;;;;4.88;1.63;;;27.00;44.00;;;;;;6187554;23;20001;-66
2022/07/18 00:53:35;;;;;;;2.03;1.48;;;27.00;44.20;;;;;;6187143;23;20080;-62
2022/07/18 00:56:03;;;;;;;2.78;1.70;;;27.00;43.60;;;;;;6186972;23;20013;-61
2022/07/18 00:58:29;;;;;;;2.95;1.60;;;27.00;43.70;;;;;;6184891;23;20008;-62
2022/07/18 01:03:39;;;;;;;4.22;1.45;;;26.90;43.70;;;;;;6183842;23;20020;-62
2022/07/18 01:06:05;;;;;;;3.55;1.80;;;26.90;44.40;;;;;;6186639;23;20001;-61
2022/07/18 01:08:32;;;;;;;1.98;1.55;;;26.90;44.20;;;;;;6186391;23;20017;-62
2022/07/18 01:10:58;;;;;;;3.10;1.50;;;26.90;44.40;;;;;;6186701;23;20504;-62
2022/07/18 01:13:24;;;;;;;5.45;1.70;;;26.80;44.20;;;;;;6186669;23;20075;-62
2022/07/18 01:15:50;;;;;;;3.47;1.60;;;26.80;44.50;;;;;;6187140;23;20008;-61
2022/07/18 01:18:16;;;;;;;3.40;1.35;;;26.80;44.40;;;;;;6186280;23;20021;-62
2022/07/18 01:20:42;;;;;;;3.25;1.55;;;26.80;44.40;;;;;;6186528;23;20084;-61
2022/07/18 01:23:07;;;;;;;2.47;1.52;;;26.80;44.20;;;;;;6186883;23;20036;-62
2022/07/18 01:25:33;;;;;;;3.25;1.60;;;26.80;44.10;;;;;;6186923;23;20053;-65
2022/07/18 01:27:59;;;;;;;4.93;1.88;;;26.80;44.00;;;;;;6186736;23;20035;-61
2022/07/18 01:30:25;;;;;;;5.03;1.73;;;26.80;44.00;;;;;;6187113;23;20020;-62
2022/07/18 01:32:59;;;;;;;3.75;1.95;;;26.70;44.10;;;;;;6187079;23;20013;-61
2022/07/18 01:35:26;;;;;;;2.40;1.70;;;26.70;44.30;;;;;;6186671;23;20012;-62
2022/07/18 01:37:53;;;;;;;5.25;1.52;;;26.70;44.60;;;;;;6186741;23;19997;-62
2022/07/18 01:40:19;;;;;;;6.55;1.50;;;26.70;44.50;;;;;;6186637;23;20068;-61
2022/07/18 01:42:45;;;;;;;4.03;1.70;;;26.70;44.30;;;;;;6186294;23;19997;-62
2022/07/18 01:45:11;;;;;;;7.60;1.80;;;26.70;44.20;;;;;;6186648;23;20015;-62
2022/07/18 01:47:37;;;;;;;5.20;1.52;;;26.60;44.40;;;;;;6186609;23;20096;-62
2022/07/18 01:50:04;;;;;;;3.75;1.65;;;26.60;44.60;;;;;;6186811;23;20020;-65
2022/07/18 01:52:30;;;;;;;3.85;1.80;;;26.60;44.40;;;;;;6186797;23;20331;-66
2022/07/18 01:54:55;;;;;;;5.63;1.60;;;26.60;44.50;;;;;;6185951;23;20040;-62
2022/07/18 01:57:21;;;;;;;3.58;1.38;;;26.60;44.50;;;;;;6185951;23;20332;-62
2022/07/18 01:59:47;;;;;;;4.70;1.55;;;26.60;44.50;;;;;;6186473;23;20008;-61
2022/07/18 02:02:12;;;;;;;5.85;1.65;;;26.60;44.40;;;;;;6186401;23;20001;-61
2022/07/18 02:07:22;;;;;;;4.43;1.50;;;26.50;44.40;;;;;;6186507;23;20386;-65
2022/07/18 02:09:48;;;;;;;3.30;2.00;;;26.50;44.40;;;;;;6186299;23;20045;-62
2022/07/18 02:12:14;;;;;;;2.42;1.52;;;26.50;44.30;;;;;;6186482;23;20076;-65
2022/07/18 02:14:39;;;;;;;2.35;1.50;;;26.50;44.50;;;;;;6186307;23;20009;-63
2022/07/18 02:17:05;;;;;;;5.70;1.60;;;26.40;44.50;;;;;;6186160;23;20105;-66
2022/07/18 02:19:31;;;;;;;3.25;1.42;;;26.40;44.70;;;;;;6186386;23;20008;-62
2022/07/18 02:21:57;;;;;;;4.10;1.55;;;26.30;44.70;;;;;;6186387;23;19997;-61
2022/07/18 02:24:23;;;;;;;4.82;1.75;;;26.40;45.00;;;;;;6186282;23;20380;-62
2022/07/18 02:26:48;;;;;;;5.80;1.50;;;26.40;45.00;;;;;;6186518;23;20001;-62
2022/07/18 02:29:14;;;;;;;5.78;1.85;;;26.30;45.00;;;;;;6186025;23;20409;-62
2022/07/18 02:31:40;;;;;;;3.58;1.67;;;26.30;44.80;;;;;;6186044;23;20068;-61
2022/07/18 02:34:09;;;;;;;5.47;1.70;;;26.30;44.90;;;;;;6186233;23;20009;-64
2022/07/18 02:36:39;;;;;;;4.63;1.65;;;26.20;45.00;;;;;;6186287;23;20012;-67
2022/07/18 02:39:06;;;;;;;3.28;1.63;;;26.30;45.00;;;;;;6186136;23;20076;-67
2022/07/18 02:41:32;;;;;;;3.85;1.73;;;26.20;45.00;;;;;;6186530;23;20021;-63
2022/07/18 02:43:58;;;;;;;5.57;2.00;;;26.20;45.20;;;;;;6185721;23;20436;-63
2022/07/18 02:46:24;;;;;;;3.85;1.60;;;26.20;45.40;;;;;;6186442;23;20298;-63
2022/07/18 02:48:50;;;;;;;3.63;1.65;;;26.20;45.60;;;;;;6185902;23;20015;-63
2022/07/18 02:51:16;;;;;;;3.45;1.70;;;26.10;45.30;;;;;;6186322;23;20036;-63
2022/07/18 02:53:42;;;;;;;3.80;1.40;;;26.10;45.50;;;;;;6186067;23;20009;-63
2022/07/18 02:56:08;;;;;;;2.67;1.60;;;26.10;45.90;;;;;;6185913;23;19997;-63
2022/07/18 02:58:33;;;;;;;3.35;1.88;;;26.10;46.30;;;;;;6185865;23;20340;-65
2022/07/18 03:00:59;;;;;;;3.22;1.50;;;26.00;46.10;;;;;;6186105;23;20001;-62
2022/07/18 03:03:25;;;;;;;2.65;1.67;;;26.00;46.10;;;;;;6185809;23;20403;-63
2022/07/18 03:05:51;;;;;;;8.05;1.80;;;26.00;46.10;;;;;;6186004;23;20008;-63
2022/07/18 03:08:17;;;;;;;3.58;1.83;;;26.00;46.00;;;;;;6185782;23;20039;-63
2022/07/18 03:10:43;;;;;;;2.72;1.60;;;26.00;46.20;;;;;;6184871;23;20371;-63
2022/07/18 03:13:10;;;;;;;2.88;1.75;;;26.00;46.10;;;;;;6185722;23;19997;-62
2022/07/18 03:15:36;;;;;;;2.83;1.63;;;26.00;46.60;;;;;;6186045;23;20005;-67
2022/07/18 03:18:02;;;;;;;6.20;1.60;;;26.00;46.70;;;;;;6185434;23;20021;-63
2022/07/18 03:20:27;;;;;;;3.67;1.80;;;25.90;46.20;;;;;;6185809;23;20056;-63
2022/07/18 03:22:53;;;;;;;2.85;1.60;;;25.90;46.00;;;;;;6185696;23;20005;-63
2022/07/18 03:25:19;;;;;;;11.80;1.80;;;25.90;46.20;;;;;;6183796;23;20012;-63
2022/07/18 03:27:45;;;;;;;6.45;1.98;;;25.90;45.90;;;;;;6186223;23;20009;-62
2022/07/18 03:30:11;;;;;;;5.28;1.85;;;25.90;45.90;;;;;;6185809;23;20040;-63
2022/07/18 03:32:37;;;;;;;3.30;1.70;;;25.80;45.70;;;;;;6185761;23;19997;-63
2022/07/18 03:35:03;;;;;;;5.93;1.80;;;25.90;45.90;;;;;;6185822;23;20054;-62
2022/07/18 03:37:28;;;;;;;5.20;1.88;;;25.80;46.10;;;;;;6185669;23;20074;-65
2022/07/18 03:39:54;;;;;;;2.97;1.30;;;25.80;46.10;;;;;;6185740;23;20432;-63
2022/07/18 03:42:20;;;;;;;3.33;1.70;;;25.90;46.10;;;;;;6185662;23;20009;-62
2022/07/18 03:44:45;;;;;;;5.03;1.98;;;25.90;45.90;;;;;;6185559;23;20005;-63
2022/07/18 03:47:11;;;;;;;3.55;1.60;;;25.80;45.50;;;;;;6185935;23;20009;-62
2022/07/18 03:49:37;;;;;;;7.90;2.42;;;25.80;45.60;;;;;;6185832;23;20092;-62
2022/07/18 03:52:03;;;;;;;4.20;1.60;;;25.80;45.90;;;;;;6185421;23;20001;-62
2022/07/18 03:54:29;;;;;;;3.47;1.60;;;25.80;46.00;;;;;;6185367;23;20059;-62
2022/07/18 03:56:54;;;;;;;5.22;1.65;;;25.80;46.00;;;;;;6185875;23;20009;-62
2022/07/18 03:59:20;;;;;;;4.15;1.60;;;25.80;46.10;;;;;;6185541;23;20005;-63
2022/07/18 04:01:46;;;;;;;8.38;1.80;;;25.80;46.10;;;;;;6184845;23;20000;-63
2022/07/18 04:04:11;;;;;;;3.28;1.60;;;25.80;46.00;;;;;;6184419;23;20428;-63
2022/07/18 04:06:37;;;;;;;5.35;1.90;;;25.70;45.70;;;;;;6183864;23;20001;-63
2022/07/18 04:09:03;;;;;;;5.15;1.90;;;25.80;45.90;;;;;;6184902;23;20036;-63
2022/07/18 04:11:29;;;;;;;2.92;1.50;;;25.70;45.80;;;;;;6185485;23;20001;-63
2022/07/18 04:13:55;;;;;;;6.18;1.50;;;25.70;45.90;;;;;;6185241;23;20009;-63
2022/07/18 04:16:20;;;;;;;6.95;1.63;;;25.70;45.70;;;;;;6184210;23;20021;-66
2022/07/18 04:18:46;;;;;;;5.00;1.90;;;25.80;45.60;;;;;;6184184;23;20104;-64
2022/07/18 04:21:12;;;;;;;2.22;1.50;;;25.70;45.50;;;;;;6181815;23;20458;-63
2022/07/18 04:23:39;;;;;;;6.57;1.63;;;25.80;45.60;;;;;;6183023;23;20205;-63
2022/07/18 04:26:05;;;;;;;5.03;2.00;;;25.80;45.50;;;;;;6184381;23;20009;-63
2022/07/18 04:28:31;;;;;;;2.72;1.58;;;25.80;45.30;;;;;;6184944;23;20467;-63
2022/07/18 04:30:57;;;;;;;4.32;1.98;;;25.70;45.40;;;;;;6185825;23;20012;-62
2022/07/18 04:33:23;;;;;;;4.57;1.80;;;25.70;45.20;;;;;;6184111;23;20424;-62
2022/07/18 04:35:49;;;;;;;5.10;1.85;;;25.80;45.60;;;;;;6185206;23;20009;-59
2022/07/18 04:38:15;;;;;;;5.28;1.73;;;25.80;45.80;;;;;;6185774;23;20009;-62
2022/07/18 04:40:40;;;;;;;6.78;1.70;;;25.80;45.50;;;;;;6185306;23;20059;-68
2022/07/18 04:43:07;;;;;;;6.45;1.73;;;25.80;45.50;;;;;;6185563;23;20008;-63
2022/07/18 04:45:34;;;;;;;8.77;1.80;;;25.80;45.50;;;;;;6185349;23;20012;-63
2022/07/18 04:48:01;;;;;;;7.10;1.63;;;25.80;45.30;;;;;;6185006;23;20005;-63
2022/07/18 04:50:29;;;;;;;4.93;1.90;;;25.80;44.80;;;;;;6185412;23;20012;-63
2022/07/18 04:52:56;;;;;;;20.98;4.45;;;25.80;45.00;;;;;;6185270;23;20044;-63
2022/07/18 04:55:23;;;;;;;128.45;16.73;;;25.90;45.60;;;;;;6184986;23;20104;-63
2022/07/18 04:57:50;;;;;;;5.80;2.20;;;25.80;47.00;;;;;;6184862;23;20001;-61
2022/07/18 05:00:21;;;;;;;10.95;1.90;;;25.80;49.70;;;;;;6183999;23;20486;-67
2022/07/18 05:02:50;;;;;;;2.80;1.70;;;25.80;49.70;;;;;;6183281;23;20011;-63
2022/07/18 05:05:18;;;;;;;3.35;1.50;;;25.90;48.90;;;;;;6183108;23;20424;-65
2022/07/18 05:07:45;;;;;;;5.35;1.65;;;25.90;49.10;;;;;;6184225;23;20012;-62
2022/07/18 05:10:12;;;;;;;5.72;1.88;;;25.90;49.00;;;;;;6184204;23;20192;-62
2022/07/18 05:12:39;;;;;;;6.05;1.90;;;25.90;48.40;;;;;;6182939;23;19997;-62
2022/07/18 05:15:07;;;;;;;5.25;1.63;;;25.90;47.40;;;;;;6184232;23;20011;-61
2022/07/18 05:17:33;;;;;;;3.80;1.83;;;26.00;46.50;;;;;;6184556;23;20108;-66
2022/07/18 05:19:59;;;;;;;5.07;1.95;;;25.90;46.20;;;;;;6183743;23;20041;-63
2022/07/18 05:22:24;;;;;;;6.10;1.75;;;26.00;46.90;;;;;;6183401;23;20004;-62
2022/07/18 05:24:51;;;;;;;3.58;1.60;;;26.00;46.90;;;;;;6183666;23;20013;-63
2022/07/18 05:27:17;;;;;;;4.28;1.85;;;26.00;46.20;;;;;;6183390;23;20001;-62
2022/07/18 05:29:42;;;;;;;7.15;2.10;;;26.00;46.70;;;;;;6184126;23;20412;-60
2022/07/18 05:32:08;;;;;;;6.38;1.83;;;26.10;46.20;;;;;;6184028;23;20009;-66
2022/07/18 05:34:34;;;;;;;11.02;1.73;;;26.10;46.30;;;;;;6186335;23;20052;-67
2022/07/18 05:37:00;;;;;;;6.18;1.77;;;26.10;45.50;;;;;;6185573;23;19997;-61
2022/07/18 05:39:26;;;;;;;7.32;1.80;;;26.10;45.30;;;;;;6185599;23;20005;-63
2022/07/18 05:41:52;;;;;;;4.95;1.50;;;26.20;45.30;;;;;;6185428;23;20332;-63
2022/07/18 05:44:21;;;;;;;5.07;2.28;;;26.20;45.50;;;;;;6185799;23;20017;-61
2022/07/18 05:46:47;;;;;;;4.20;1.90;;;26.20;45.40;;;;;;6185065;23;20016;-61
2022/07/18 05:49:14;;;;;;;5.60;1.65;;;26.30;44.90;;;;;;6185627;23;20013;-67
2022/07/18 05:51:40;;;;;;;4.32;1.60;;;26.30;44.80;;;;;;6185568;23;20056;-61
2022/07/18 05:54:06;;;;;;;5.50;1.60;;;26.30;44.90;;;;;;6185193;23;20017;-63
2022/07/18 05:56:32;;;;;;;6.65;1.70;;;26.30;44.60;;;;;;6184177;23;20391;-66
2022/07/18 05:58:57;;;;;;;5.95;1.75;;;26.40;44.50;;;;;;6184401;23;20013;-63
2022/07/18 06:01:23;;;;;;;2.65;1.60;;;26.40;44.10;;;;;;6184602;23;20001;-61
2022/07/18 06:03:49;;;;;;;7.72;1.83;;;26.40;44.50;;;;;;6184526;23;20016;-63
2022/07/18 06:06:15;;;;;;;3.75;2.17;;;26.50;44.20;;;;;;6184140;23;20013;-63
2022/07/18 06:08:41;;;;;;;2.92;1.50;;;26.50;44.30;;;;;;6184858;23;20112;-63
2022/07/18 06:11:08;;;;;;;3.80;1.70;;;26.50;44.40;;;;;;6184465;23;20047;-64
2022/07/18 06:13:39;;;;;;;4.82;1.73;;;26.60;44.10;;;;;;6184986;23;20044;-63
2022/07/18 06:16:06;;;;;;;8.57;1.83;;;26.60;43.90;;;;;;6184476;23;20008;-63
2022/07/18 06:18:32;;;;;;;3.92;1.50;;;26.60;43.80;;;;;;6184873;23;20033;-63
2022/07/18 06:20:58;;;;;;;5.15;1.45;;;26.70;43.70;;;;;;6185101;23;20013;-64
2022/07/18 06:23:25;;;;;;;9.10;1.60;;;26.70;43.30;;;;;;6185578;23;20080;-69
2022/07/18 06:25:50;;;;;;;4.47;1.42;;;26.70;43.10;;;;;;6186602;23;20337;-67
2022/07/18 06:28:16;;;;;;;6.63;1.70;;;26.80;43.00;;;;;;6186081;23;20061;-65
2022/07/18 06:30:42;;;;;;;8.30;1.90;;;26.80;43.50;;;;;;6186625;23;20005;-68
2022/07/18 06:33:07;;;;;;;4.13;1.70;;;26.80;43.50;;;;;;6184963;23;20124;-67
2022/07/18 06:35:34;;;;;;;4.25;1.48;;;26.90;43.40;;;;;;6185509;23;20009;-68
2022/07/18 06:38:00;;;;;;;4.75;2.30;;;26.90;43.30;;;;;;6185110;23;20500;-68
2022/07/18 06:40:26;;;;;;;4.55;1.40;;;26.90;43.20;;;;;;6185512;23;20028;-69
2022/07/18 06:42:52;;;;;;;2.97;1.20;;;27.00;42.90;;;;;;6185732;23;20012;-68
2022/07/18 06:45:18;;;;;;;9.07;1.40;;;27.00;43.00;;;;;;6185757;23;20328;-67
2022/07/18 06:47:44;;;;;;;6.90;1.52;;;27.10;43.10;;;;;;6185684;23;20001;-67
2022/07/18 06:50:13;;;;;;;8.57;2.03;;;27.10;43.10;;;;;;6185410;23;20571;-67
2022/07/18 06:52:41;;;;;;;11.80;1.70;;;27.10;42.50;;;;;;6185814;23;20144;-67
2022/07/18 06:55:07;;;;;;;3.50;1.50;;;27.20;42.50;;;;;;6185815;23;20124;-67
2022/07/18 06:57:33;;;;;;;4.00;1.70;;;27.30;42.40;;;;;;6185763;23;20008;-67
2022/07/18 06:59:58;;;;;;;5.45;1.55;;;27.20;42.50;;;;;;6185126;23;20084;-68
2022/07/18 07:02:25;;;;;;;4.38;1.67;;;27.30;41.80;;;;;;6185154;23;20001;-70
2022/07/18 07:04:50;;;;;;;7.85;1.60;;;27.40;41.80;;;;;;6185321;23;20001;-68
2022/07/18 07:07:16;;;;;;;7.78;1.58;;;27.40;41.90;;;;;;6185331;23;20317;-68
2022/07/18 07:09:42;;;;;;;4.45;1.40;;;27.40;42.00;;;;;;6185106;23;20028;-68
2022/07/18 07:12:09;;;;;;;1.85;1.35;;;27.40;41.80;;;;;;6185097;23;20008;-68
2022/07/18 07:14:35;;;;;;;6.72;1.73;;;27.50;41.40;;;;;;6185496;23;20075;-68
2022/07/18 07:17:01;;;;;;;5.95;1.35;;;27.50;41.30;;;;;;6185283;23;20041;-68
2022/07/18 07:19:27;;;;;;;2.13;1.45;;;27.50;41.50;;;;;;6185960;23;20016;-68
2022/07/18 07:21:53;;;;;;;7.70;1.30;;;27.60;41.50;;;;;;6185699;23;20001;-68
2022/07/18 07:24:19;;;;;;;3.33;1.50;;;27.60;42.00;;;;;;6185553;23;20001;-66
2022/07/18 07:26:44;;;;;;;4.35;1.48;;;27.60;41.70;;;;;;6185843;23;20007;-66
2022/07/18 07:29:10;;;;;;;6.65;2.05;;;27.60;41.40;;;;;;6186305;23;20017;-66
2022/07/18 07:31:36;;;;;;;2.92;1.20;;;27.60;41.20;;;;;;6186122;23;20012;-66
2022/07/18 07:34:02;;;;;;;5.47;1.67;;;27.60;41.30;;;;;;6185892;23;20005;-66
2022/07/18 07:36:28;;;;;;;5.40;1.58;;;27.60;41.30;;;;;;6185668;23;20059;-66
2022/07/18 07:38:55;;;;;;;1.88;1.30;;;27.70;41.20;;;;;;6185204;23;20428;-66
2022/07/18 07:41:20;;;;;;;7.03;1.48;;;27.70;41.40;;;;;;6185567;23;20005;-66
2022/07/18 07:43:46;;;;;;;6.80;1.40;;;27.80;41.00;;;;;;6185510;23;20001;-66
2022/07/18 07:46:12;;;;;;;6.18;1.40;;;27.90;40.90;;;;;;6185416;23;20463;-66
2022/07/18 07:48:38;;;;;;;8.75;1.38;;;27.90;40.80;;;;;;6185525;23;20015;-66
2022/07/18 07:51:04;;;;;;;3.28;1.40;;;27.90;40.70;;;;;;6185923;23;20008;-66
2022/07/18 07:53:31;;;;;;;4.75;1.50;;;28.00;40.70;;;;;;6185257;23;20447;-66
2022/07/18 07:55:57;;;;;;;4.03;1.75;;;28.00;40.50;;;;;;6185213;23;20009;-65
2022/07/18 07:58:22;;;;;;;6.35;1.35;;;28.10;40.40;;;;;;6185710;23;20372;-66
2022/07/18 08:00:48;;;;;;;2.85;1.27;;;28.10;40.30;;;;;;6185696;23;20016;-66
2022/07/18 08:03:14;;;;;;;2.60;1.40;;;28.10;40.10;;;;;;6184787;23;20001;-66
2022/07/18 08:05:48;;;;;;;5.03;1.60;;;28.10;40.10;;;;;;6185317;23;20345;-66
2022/07/18 08:08:15;;;;;;;5.82;1.50;;;28.20;40.10;;;;;;6185238;23;20387;-66
2022/07/18 08:10:41;;;;;;;4.68;1.58;;;28.20;40.10;;;;;;6185710;23;20313;-66
2022/07/18 08:13:08;;;;;;;3.85;1.67;;;28.30;40.60;;;;;;6185351;23;20376;-66
2022/07/18 08:15:33;;;;;;;4.78;1.50;;;28.30;39.70;;;;;;6185167;23;20005;-66
2022/07/18 08:17:59;;;;;;;4.13;1.48;;;28.40;39.80;;;;;;6185162;23;20017;-66
2022/07/18 08:20:25;;;;;;;7.30;1.50;;;28.40;39.60;;;;;;6185470;23;20083;-66
2022/07/18 08:22:56;;;;;;;4.25;1.42;;;28.50;39.50;;;;;;6185242;23;20495;-66
2022/07/18 08:25:22;;;;;;;5.47;1.27;;;28.60;39.30;;;;;;6185267;23;20047;-66
2022/07/18 08:27:48;;;;;;;2.85;1.50;;;28.60;39.30;;;;;;6185305;23;20016;-66
2022/07/18 08:30:15;;;;;;;3.90;1.55;;;28.60;39.00;;;;;;6185272;23;20016;-66
2022/07/18 08:32:40;;;;;;;6.00;1.50;;;28.70;39.70;;;;;;6185433;23;20039;-66
2022/07/18 08:35:06;;;;;;;6.75;1.40;;;28.70;39.00;;;;;;6185262;23;20005;-66
2022/07/18 08:37:32;;;;;;;3.75;1.50;;;28.80;38.90;;;;;;6185472;23;20057;-66
2022/07/18 08:39:58;;;;;;;6.20;1.42;;;28.90;38.50;;;;;;6185555;23;20005;-66
2022/07/18 08:42:26;;;;;;;7.00;1.75;;;28.90;38.50;;;;;;6185185;23;20007;-66
2022/07/18 08:44:55;;;;;;;5.18;1.80;;;29.00;38.60;;;;;;6185632;23;20009;-66
2022/07/18 08:47:22;;;;;;;6.63;1.50;;;29.00;38.50;;;;;;6185275;23;20037;-66
2022/07/18 08:49:48;;;;;;;3.08;1.77;;;29.00;38.10;;;;;;6185199;23;20009;-67
2022/07/18 08:52:15;;;;;;;16.80;1.98;;;29.10;38.10;;;;;;6185264;23;20001;-66
2022/07/18 08:54:41;;;;;;;5.10;1.63;;;29.20;38.10;;;;;;6185185;23;20005;-66
2022/07/18 08:57:07;;;;;;;4.80;1.45;;;29.20;38.00;;;;;;6185330;23;20459;-66
2022/07/18 08:59:33;;;;;;;5.25;1.50;;;29.20;37.80;;;;;;6185139;23;20005;-66
2022/07/18 09:01:59;;;;;;;5.82;1.63;;;29.30;37.70;;;;;;6184994;23;20389;-70
2022/07/18 09:04:42;;;;;;;3.70;1.40;;;29.30;37.70;;;;;;6185129;23;20029;-65
2022/07/18 09:07:22;;;;;;;3.88;1.30;;;29.40;37.50;;;;;;6185296;23;20029;-66
2022/07/18 09:09:53;;;;;;;3.08;1.58;;;29.40;37.60;;;;;;6184957;23;20028;-66
2022/07/18 09:12:20;;;;;;;6.20;1.20;;;29.50;37.70;;;;;;6183802;23;20005;-66
2022/07/18 09:14:46;;;;;;;3.88;1.30;;;29.50;37.30;;;;;;6184954;23;20451;-67
2022/07/18 09:17:14;;;;;;;2.75;1.42;;;29.60;37.40;;;;;;6185392;23;20017;-67
2022/07/18 09:19:43;;;;;;;5.85;1.77;;;29.60;37.10;;;;;;6185756;23;20012;-67
2022/07/18 09:22:14;;;;;;;5.63;1.67;;;29.60;37.30;;;;;;6186684;23;20023;-67
2022/07/18 09:24:59;;;;;;;5.20;1.67;;;29.70;37.40;;;;;;6186913;23;20005;-66
2022/07/18 09:27:32;;;;;;;10.93;1.30;;;29.70;36.60;;;;;;6186759;23;20392;-68
2022/07/18 09:30:22;;;;;;;4.65;1.50;;;29.80;37.00;;;;;;6186077;23;20068;-67
2022/07/18 09:32:51;;;;;;;6.15;1.48;;;29.90;37.10;;;;;;6186507;23;20005;-67
2022/07/18 09:35:23;;;;;;;7.07;1.70;;;29.90;37.00;;;;;;6186678;23;20036;-72
2022/07/18 09:37:59;;;;;;;3.67;1.70;;;30.00;36.70;;;;;;6186244;23;20001;-68
2022/07/18 09:40:45;;;;;;;2.30;1.35;;;30.00;36.50;;;;;;6186024;23;20368;-68
2022/07/18 09:43:13;;;;;;;7.68;1.85;;;30.10;36.90;;;;;;6185639;23;20017;-67
2022/07/18 09:45:42;;;;;;;6.03;2.13;;;30.10;36.70;;;;;;6186709;23;20001;-67
2022/07/18 09:48:11;;;;;;;5.43;1.25;;;30.20;36.40;;;;;;6185856;23;20008;-66
2022/07/18 09:50:43;;;;;;;3.80;1.33;;;30.20;36.40;;;;;;6185778;23;20017;-67
2022/07/18 09:53:23;;;;;;;4.93;1.55;;;30.30;36.60;;;;;;6186683;23;20001;-67
2022/07/18 09:55:58;;;;;;;3.50;1.55;;;30.30;36.40;;;;;;6186574;23;20005;-67
2022/07/18 09:58:40;;;;;;;4.35;1.17;;;30.30;36.40;;;;;;6186501;23;20001;-67
2022/07/18 10:01:09;;;;;;;7.97;1.60;;;30.40;37.00;;;;;;6186500;23;20029;-66
2022/07/18 10:03:35;;;;;;;3.97;1.70;;;30.50;37.10;;;;;;6186608;23;20009;-67
2022/07/18 10:06:02;;;;;;;3.83;1.35;;;30.50;36.30;;;;;;6186232;23;20024;-67
2022/07/18 10:08:30;;;;;;;5.32;1.65;;;30.60;36.00;;;;;;6186288;23;20388;-68
2022/07/18 10:10:59;;;;;;;2.90;1.30;;;30.70;36.20;;;;;;6186025;23;20063;-67
2022/07/18 10:13:25;;;;;;;8.68;1.48;;;30.70;36.00;;;;;;6185683;23;20486;-65
2022/07/18 10:15:52;;;;;;;3.30;2.05;;;30.70;36.00;;;;;;6185559;23;20015;-64
2022/07/18 10:18:20;;;;;;;4.07;1.40;;;30.80;36.00;;;;;;6185456;23;20017;-65
2022/07/18 10:20:50;;;;;;;4.65;1.63;;;30.80;35.90;;;;;;6185762;23;20005;-64
2022/07/18 10:23:40;;;;;;;7.35;1.50;;;30.90;35.50;;;;;;6185553;23;20440;-64
2022/07/18 10:26:15;;;;;;;5.70;1.45;;;30.90;35.30;;;;;;6185621;23;20005;-70
2022/07/18 10:28:56;;;;;;;3.60;1.35;;;30.90;35.40;;;;;;6185617;23;20017;-65
2022/07/18 10:31:23;;;;;;;5.78;1.55;;;31.00;35.40;;;;;;6186382;23;20024;-65
2022/07/18 10:33:50;;;;;;;4.60;1.25;;;31.00;35.50;;;;;;6186565;23;20013;-65
2022/07/18 10:36:21;;;;;;;3.50;1.50;;;31.00;35.30;;;;;;6186298;23;20001;-65
2022/07/18 10:39:20;;;;;;;5.07;1.35;;;31.10;35.30;;;;;;6186109;23;20005;-65
2022/07/18 10:41:45;;;;;;;4.45;1.63;;;31.10;35.20;;;;;;6185758;23;20005;-65
2022/07/18 10:44:23;;;;;;;3.75;1.30;;;31.20;35.10;;;;;;6186240;23;20059;-65
2022/07/18 10:47:09;;;;;;;2.97;1.48;;;31.20;35.20;;;;;;6186918;23;20012;-65
2022/07/18 10:49:49;;;;;;;4.13;1.50;;;31.20;35.20;;;;;;6179951;23;20017;-65
2022/07/18 10:52:33;;;;;;;2.97;1.55;;;31.30;35.20;;;;;;6185825;23;20068;-67
2022/07/18 10:55:05;;;;;;;4.68;1.42;;;31.30;35.00;;;;;;6186077;23;20004;-67
2022/07/18 10:57:32;;;;;;;7.55;1.70;;;31.40;34.90;;;;;;6186558;23;20043;-67
2022/07/18 11:00:01;;;;;;;3.35;1.50;;;31.40;34.80;;;;;;6186074;23;20005;-66
2022/07/18 11:02:38;;;;;;;6.97;1.55;;;31.50;35.00;;;;;;6185917;23;20015;-65
2022/07/18 11:05:23;;;;;;;5.63;1.70;;;31.50;34.80;;;;;;6185721;23;20478;-66
2022/07/18 11:08:01;;;;;;;5.85;1.45;;;31.60;34.50;;;;;;6185260;23;20420;-66
2022/07/18 11:10:46;;;;;;;3.75;1.52;;;31.60;34.50;;;;;;6186208;23;20427;-67
2022/07/18 11:13:22;;;;;;;2.97;1.40;;;31.60;34.50;;;;;;6185919;23;20009;-67
2022/07/18 11:16:02;;;;;;;5.78;1.40;;;31.70;34.50;;;;;;6185660;23;20421;-67
2022/07/18 11:18:31;;;;;;;4.32;1.60;;;31.70;34.30;;;;;;6185497;23;20013;-66
2022/07/18 11:20:57;;;;;;;2.65;1.45;;;31.70;34.30;;;;;;6185590;23;20009;-67
2022/07/18 11:23:28;;;;;;;5.50;1.20;;;31.70;34.10;;;;;;6185688;23;20096;-67
2022/07/18 11:25:57;;;;;;;1.30;1.10;;;31.70;34.00;;;;;;6185747;23;20012;-70
2022/07/18 11:28:24;;;;;;;3.58;1.60;;;31.70;34.00;;;;;;6185466;23;20032;-67
2022/07/18 11:31:05;;;;;;;6.90;1.60;;;31.80;33.90;;;;;;6185100;23;20001;-67
2022/07/18 11:33:34;;;;;;;6.18;1.67;;;31.80;33.70;;;;;;6185217;23;20453;-66
2022/07/18 11:36:18;;;;;;;2.33;1.30;;;31.90;33.80;;;;;;6185747;23;20029;-67
2022/07/18 11:38:51;;;;;;;3.22;1.45;;;31.80;33.90;;;;;;6185544;23;20009;-67
2022/07/18 11:41:17;;;;;;;3.72;1.30;;;31.90;33.90;;;;;;6185769;23;20476;-67
2022/07/18 11:43:44;;;;;;;4.72;1.38;;;31.90;34.10;;;;;;6185201;23;20024;-66
2022/07/18 11:46:13;;;;;;;3.10;1.08;;;32.00;33.90;;;;;;6185377;23;20055;-67
2022/07/18 11:48:40;;;;;;;5.07;1.50;;;32.00;33.90;;;;;;6185465;23;20005;-67
2022/07/18 11:51:16;;;;;;;4.05;1.60;;;32.00;34.10;;;;;;6185579;23;20063;-67
2022/07/18 11:53:45;;;;;;;2.15;1.33;;;32.10;34.10;;;;;;6185500;23;20076;-67
2022/07/18 11:56:11;;;;;;;3.17;1.13;;;32.10;33.90;;;;;;6182126;23;20005;-68
2022/07/18 11:58:38;;;;;;;3.17;1.35;;;32.20;34.10;;;;;;6182158;23;20001;-67
2022/07/18 12:01:04;;;;;;;4.93;1.45;;;32.20;33.50;;;;;;6182637;23;20013;-67
2022/07/18 12:03:30;;;;;;;3.65;1.30;;;32.20;33.40;;;;;;6185167;23;20315;-67
2022/07/18 12:05:56;;;;;;;3.85;1.55;;;32.20;34.20;;;;;;6185264;23;20032;-67
2022/07/18 12:08:29;;;;;;;6.22;1.67;;;32.30;33.40;;;;;;6184897;23;20107;-69
2022/07/18 12:11:19;;;;;;;4.07;1.25;;;32.30;33.50;;;;;;6184355;23;20012;-69
2022/07/18 12:13:58;;;;;;;4.57;1.67;;;32.30;33.90;;;;;;6185561;23;20344;-67
2022/07/18 12:16:45;;;;;;;12.38;1.58;;;32.30;33.70;;;;;;6185493;23;20020;-68
2022/07/18 12:19:24;;;;;;;6.47;1.70;;;32.40;33.70;;;;;;6185376;23;20020;-70
2022/07/18 12:22:03;;;;;;;2.85;1.50;;;32.40;33.40;;;;;;6185297;23;20005;-68
2022/07/18 12:24:39;;;;;;;2.88;1.55;;;32.40;33.50;;;;;;6185226;23;20009;-71
2022/07/18 12:27:13;;;;;;;5.00;2.00;;;32.50;33.70;;;;;;6185436;23;20004;-67
2022/07/18 12:30:15;;;;;;;3.08;1.50;;;32.50;33.60;;;;;;6185093;23;20020;-70
2022/07/18 12:32:46;;;;;;;3.35;1.45;;;32.50;33.30;;;;;;6184585;23;20008;-69
2022/07/18 12:35:18;;;;;;;6.53;1.42;;;32.50;33.20;;;;;;6185167;23;20004;-67
2022/07/18 12:38:00;;;;;;;5.72;1.42;;;32.50;33.20;;;;;;6185252;23;20006;-68
2022/07/18 12:40:46;;;;;;;4.28;1.67;;;32.50;33.20;;;;;;6185341;23;20031;-68
2022/07/18 12:43:15;;;;;;;8.75;1.80;;;32.50;33.30;;;;;;6188243;23;20054;-67
2022/07/18 12:45:42;;;;;;;2.67;1.45;;;32.60;33.40;;;;;;6188323;23;20062;-70
2022/07/18 12:48:09;;;;;;;3.80;1.40;;;32.60;33.20;;;;;;6186833;23;20050;-67
2022/07/18 12:50:37;;;;;;;2.67;1.48;;;32.60;33.20;;;;;;6185143;23;20063;-67
2022/07/18 12:53:03;;;;;;;2.10;1.33;;;32.70;33.00;;;;;;6186166;23;20005;-67
2022/07/18 12:55:29;;;;;;;4.50;1.45;;;32.70;33.10;;;;;;6188708;23;20027;-70
2022/07/18 12:57:55;;;;;;;2.22;1.60;;;32.70;33.10;;;;;;6187120;23;20392;-68